sensor_id;sensor_type;location;lat;lon;timestamp;pressure;altitude;pressure_sealevel;temperature;humidity
64602;BME280;68371;42.630;23.192;2023-12-29T00:01:30;92875.75;;;1.03;85.64
64602;BME280;68371;42.630;23.192;2023-12-29T00:03:57;92926.34;;;1.39;85.42
64602;BME280;68371;42.630;23.192;2023-12-29T00:06:25;92954.78;;;1.50;85.94
64602;BME280;68371;42.630;23.192;2023-12-29T00:08:52;92958.94;;;1.51;85.55
64602;BME280;68371;42.630;23.192;2023-12-29T00:11:19;92877.84;;;0.90;85.79
64602;BME280;68371;42.630;23.192;2023-12-29T00:13:47;92956.66;;;1.44;85.84
64602;BME280;68371;42.630;23.192;2023-12-29T00:16:15;92958.94;;;1.46;85.58
64602;BME280;68371;42.630;23.192;2023-12-29T00:18:42;92950.66;;;1.44;85.50
64602;BME280;68371;42.630;23.192;2023-12-29T00:21:09;92858.75;;;0.76;85.47
64602;BME280;68371;42.630;23.192;2023-12-29T00:23:35;92929.78;;;1.19;85.57
64602;BME280;68371;42.630;23.192;2023-12-29T00:26:04;92886.13;;;0.87;86.36
64602;BME280;68371;42.630;23.192;2023-12-29T00:28:31;92870.13;;;0.75;86.81
64602;BME280;68371;42.630;23.192;2023-12-29T00:30:59;92946.84;;;1.26;86.58
64602;BME280;68371;42.630;23.192;2023-12-29T00:33:26;92877.13;;;0.69;86.76
64602;BME280;68371;42.630;23.192;2023-12-29T00:35:53;92875.09;;;0.61;86.99
64602;BME280;68371;42.630;23.192;2023-12-29T00:38:19;92953.38;;;1.08;88.31
64602;BME280;68371;42.630;23.192;2023-12-29T00:40:46;92947.91;;;1.09;88.07
64602;BME280;68371;42.630;23.192;2023-12-29T00:43:13;92834.00;;;0.34;88.44
64602;BME280;68371;42.630;23.192;2023-12-29T00:45:40;92873.25;;;0.67;87.95
64602;BME280;68371;42.630;23.192;2023-12-29T00:48:09;92942.72;;;1.19;88.44
64602;BME280;68371;42.630;23.192;2023-12-29T00:50:36;92954.91;;;1.09;87.97
64602;BME280;68371;42.630;23.192;2023-12-29T00:53:03;92944.81;;;1.12;88.42
64602;BME280;68371;42.630;23.192;2023-12-29T00:55:29;92782.13;;;0.05;88.06
64602;BME280;68371;42.630;23.192;2023-12-29T00:57:56;92773.84;;;0.03;88.10
64602;BME280;68371;42.630;23.192;2023-12-29T01:00:23;92950.00;;;1.12;88.24
64602;BME280;68371;42.630;23.192;2023-12-29T01:02:50;92946.34;;;1.13;88.60
64602;BME280;68371;42.630;23.192;2023-12-29T01:05:18;92948.94;;;1.18;88.47
64602;BME280;68371;42.630;23.192;2023-12-29T01:07:46;92761.19;;;-0.04;88.33
64602;BME280;68371;42.630;23.192;2023-12-29T01:10:13;92916.38;;;0.97;88.51
64602;BME280;68371;42.630;23.192;2023-12-29T01:12:40;92939.91;;;1.00;88.74
64602;BME280;68371;42.630;23.192;2023-12-29T01:15:08;92947.19;;;1.04;89.13
64602;BME280;68371;42.630;23.192;2023-12-29T01:17:35;92822.91;;;0.28;89.24
64602;BME280;68371;42.630;23.192;2023-12-29T01:20:03;92940.91;;;1.15;89.36
64602;BME280;68371;42.630;23.192;2023-12-29T01:22:31;92851.56;;;0.47;89.49
64602;BME280;68371;42.630;23.192;2023-12-29T01:24:58;92888.00;;;0.71;90.53
64602;BME280;68371;42.630;23.192;2023-12-29T01:27:25;92802.78;;;0.05;90.47
64602;BME280;68371;42.630;23.192;2023-12-29T01:29:52;92893.44;;;0.70;90.52
64602;BME280;68371;42.630;23.192;2023-12-29T01:32:19;92900.38;;;0.85;90.98
64602;BME280;68371;42.630;23.192;2023-12-29T01:34:46;92934.97;;;1.09;91.28
64602;BME280;68371;42.630;23.192;2023-12-29T01:37:13;92938.09;;;1.11;91.28
64602;BME280;68371;42.630;23.192;2023-12-29T01:39:42;92814.91;;;0.35;91.29
64602;BME280;68371;42.630;23.192;2023-12-29T01:42:09;92906.06;;;0.92;90.61
64602;BME280;68371;42.630;23.192;2023-12-29T01:44:37;92938.63;;;1.08;90.51
64602;BME280;68371;42.630;23.192;2023-12-29T01:47:10;92940.41;;;1.13;90.79
64602;BME280;68371;42.630;23.192;2023-12-29T01:49:38;92897.00;;;0.84;89.98
64602;BME280;68371;42.630;23.192;2023-12-29T01:52:05;92879.69;;;0.74;90.04
64602;BME280;68371;42.630;23.192;2023-12-29T01:54:34;92917.66;;;1.05;89.54
64602;BME280;68371;42.630;23.192;2023-12-29T01:57:05;92909.94;;;0.94;89.87
64602;BME280;68371;42.630;23.192;2023-12-29T01:59:34;92940.16;;;1.14;90.75
64602;BME280;68371;42.630;23.192;2023-12-29T02:02:03;92917.44;;;0.91;90.85
64602;BME280;68371;42.630;23.192;2023-12-29T02:04:30;92849.75;;;0.43;90.25
64602;BME280;68371;42.630;23.192;2023-12-29T02:06:57;92720.41;;;-0.43;89.84
64602;BME280;68371;42.630;23.192;2023-12-29T02:09:24;92686.88;;;-0.58;89.82
64602;BME280;68371;42.630;23.192;2023-12-29T02:11:51;92856.22;;;0.50;89.99
64602;BME280;68371;42.630;23.192;2023-12-29T02:14:21;92730.75;;;-0.28;90.02
64602;BME280;68371;42.630;23.192;2023-12-29T02:16:55;92809.72;;;0.35;90.12
64602;BME280;68371;42.630;23.192;2023-12-29T02:19:37;92848.69;;;0.69;89.11
64602;BME280;68371;42.630;23.192;2023-12-29T02:22:04;92849.75;;;0.53;89.81
64602;BME280;68371;42.630;23.192;2023-12-29T02:24:33;92686.34;;;-0.55;89.91
64602;BME280;68371;42.630;23.192;2023-12-29T02:27:06;92879.19;;;0.72;90.47
64602;BME280;68371;42.630;23.192;2023-12-29T02:29:36;92907.84;;;1.02;90.67
64602;BME280;68371;42.630;23.192;2023-12-29T02:32:06;92894.72;;;0.77;90.72
64602;BME280;68371;42.630;23.192;2023-12-29T02:34:40;92864.97;;;0.70;91.35
64602;BME280;68371;42.630;23.192;2023-12-29T02:37:09;92901.38;;;0.99;90.46
64602;BME280;68371;42.630;23.192;2023-12-29T02:39:36;92911.22;;;1.02;90.58
64602;BME280;68371;42.630;23.192;2023-12-29T02:42:05;92812.78;;;0.42;90.67
64602;BME280;68371;42.630;23.192;2023-12-29T02:44:32;92829.34;;;0.46;90.92
64602;BME280;68371;42.630;23.192;2023-12-29T02:46:58;92820.56;;;0.42;90.54
64602;BME280;68371;42.630;23.192;2023-12-29T02:49:26;92887.69;;;0.93;89.84
64602;BME280;68371;42.630;23.192;2023-12-29T02:51:53;92885.63;;;0.95;89.89
64602;BME280;68371;42.630;23.192;2023-12-29T02:54:20;92795.25;;;0.39;89.71
64602;BME280;68371;42.630;23.192;2023-12-29T02:56:47;92835.75;;;0.64;90.36
64602;BME280;68371;42.630;23.192;2023-12-29T02:59:15;92789.56;;;0.37;90.43
64602;BME280;68371;42.630;23.192;2023-12-29T03:01:42;92839.38;;;0.73;90.34
64602;BME280;68371;42.630;23.192;2023-12-29T03:04:09;92784.09;;;0.49;90.12
64602;BME280;68371;42.630;23.192;2023-12-29T03:06:36;92854.84;;;0.94;89.95
64602;BME280;68371;42.630;23.192;2023-12-29T03:09:03;92805.28;;;0.56;89.79
64602;BME280;68371;42.630;23.192;2023-12-29T03:11:30;92841.94;;;0.84;89.89
64602;BME280;68371;42.630;23.192;2023-12-29T03:13:57;92837.28;;;0.80;89.92
64602;BME280;68371;42.630;23.192;2023-12-29T03:16:25;92831.28;;;0.85;89.91
64602;BME280;68371;42.630;23.192;2023-12-29T03:18:52;92832.09;;;0.86;90.14
64602;BME280;68371;42.630;23.192;2023-12-29T03:21:19;92829.75;;;0.84;89.88
64602;BME280;68371;42.630;23.192;2023-12-29T03:23:46;92583.16;;;-0.76;88.49
64602;BME280;68371;42.630;23.192;2023-12-29T03:26:13;92840.88;;;0.85;89.03
64602;BME280;68371;42.630;23.192;2023-12-29T03:28:41;92741.53;;;0.21;89.17
64602;BME280;68371;42.630;23.192;2023-12-29T03:31:07;92833.66;;;0.82;89.48
64602;BME280;68371;42.630;23.192;2023-12-29T03:33:35;92753.66;;;0.25;88.89
64602;BME280;68371;42.630;23.192;2023-12-29T03:36:03;92802.72;;;0.46;88.72
64602;BME280;68371;42.630;23.192;2023-12-29T03:38:29;92738.22;;;-0.06;89.28
64602;BME280;68371;42.630;23.192;2023-12-29T03:40:58;92799.91;;;0.22;89.87
64602;BME280;68371;42.630;23.192;2023-12-29T03:43:25;92843.03;;;0.57;89.55
64602;BME280;68371;42.630;23.192;2023-12-29T03:45:52;92847.16;;;0.48;89.79
64602;BME280;68371;42.630;23.192;2023-12-29T03:48:19;92858.53;;;0.57;89.63
64602;BME280;68371;42.630;23.192;2023-12-29T03:50:47;92740.81;;;-0.16;89.34
64602;BME280;68371;42.630;23.192;2023-12-29T03:53:14;92814.38;;;0.28;89.13
64602;BME280;68371;42.630;23.192;2023-12-29T03:55:41;92795.78;;;0.15;89.17
64602;BME280;68371;42.630;23.192;2023-12-29T03:58:08;92853.13;;;0.53;89.46
64602;BME280;68371;42.630;23.192;2023-12-29T04:00:35;92851.81;;;0.56;89.29
64602;BME280;68371;42.630;23.192;2023-12-29T04:03:04;92734.63;;;-0.30;89.37
64602;BME280;68371;42.630;23.192;2023-12-29T04:05:30;92778.47;;;0.06;89.40
64602;BME280;68371;42.630;23.192;2023-12-29T04:07:59;92780.56;;;0.09;88.68
64602;BME280;68371;42.630;23.192;2023-12-29T04:10:25;92822.09;;;0.38;88.87
64602;BME280;68371;42.630;23.192;2023-12-29T04:12:52;92844.84;;;0.46;89.44
64602;BME280;68371;42.630;23.192;2023-12-29T04:15:19;92861.41;;;0.40;89.44
64602;BME280;68371;42.630;23.192;2023-12-29T04:17:50;92853.13;;;0.48;90.31
64602;BME280;68371;42.630;23.192;2023-12-29T04:20:17;92848.22;;;0.42;90.06
64602;BME280;68371;42.630;23.192;2023-12-29T04:22:44;92848.72;;;0.44;89.61
64602;BME280;68371;42.630;23.192;2023-12-29T04:25:12;92853.13;;;0.48;89.27
64602;BME280;68371;42.630;23.192;2023-12-29T04:27:39;92829.63;;;0.19;89.98
64602;BME280;68371;42.630;23.192;2023-12-29T04:30:07;92849.78;;;0.37;89.92
64602;BME280;68371;42.630;23.192;2023-12-29T04:32:34;92742.38;;;-0.35;89.75
64602;BME280;68371;42.630;23.192;2023-12-29T04:35:01;92862.44;;;0.34;89.81
64602;BME280;68371;42.630;23.192;2023-12-29T04:37:28;92857.53;;;0.32;90.29
64602;BME280;68371;42.630;23.192;2023-12-29T04:39:54;92684.81;;;-0.77;89.74
64602;BME280;68371;42.630;23.192;2023-12-29T04:42:23;92733.31;;;-0.53;89.89
64602;BME280;68371;42.630;23.192;2023-12-29T04:44:49;92861.16;;;0.31;90.51
64602;BME280;68371;42.630;23.192;2023-12-29T04:47:16;92746.25;;;-0.48;90.47
64602;BME280;68371;42.630;23.192;2023-12-29T04:49:44;92824.22;;;0.15;89.94
64602;BME280;68371;42.630;23.192;2023-12-29T04:52:10;92858.28;;;0.38;90.31
64602;BME280;68371;42.630;23.192;2023-12-29T04:54:37;92836.09;;;0.27;90.78
64602;BME280;68371;42.630;23.192;2023-12-29T04:57:04;92850.56;;;0.33;89.56
64602;BME280;68371;42.630;23.192;2023-12-29T04:59:32;92849.00;;;0.32;89.30
64602;BME280;68371;42.630;23.192;2023-12-29T05:01:59;92814.16;;;0.09;89.18
64602;BME280;68371;42.630;23.192;2023-12-29T05:04:26;92845.38;;;0.38;89.72
64602;BME280;68371;42.630;23.192;2023-12-29T05:06:52;92820.06;;;0.25;89.89
64602;BME280;68371;42.630;23.192;2023-12-29T05:09:19;92845.88;;;0.40;90.00
64602;BME280;68371;42.630;23.192;2023-12-29T05:11:46;92738.75;;;-0.39;89.87
64602;BME280;68371;42.630;23.192;2023-12-29T05:14:13;92793.75;;;-0.03;89.82
64602;BME280;68371;42.630;23.192;2023-12-29T05:16:41;92843.31;;;0.45;89.54
64602;BME280;68371;42.630;23.192;2023-12-29T05:19:08;92754.25;;;-0.14;89.09
64602;BME280;68371;42.630;23.192;2023-12-29T05:21:35;92844.06;;;0.46;89.36
64602;BME280;68371;42.630;23.192;2023-12-29T05:24:02;92768.19;;;-0.20;89.42
64602;BME280;68371;42.630;23.192;2023-12-29T05:26:29;92847.19;;;0.37;90.03
64602;BME280;68371;42.630;23.192;2023-12-29T05:28:56;92843.81;;;0.42;90.86
64602;BME280;68371;42.630;23.192;2023-12-29T05:31:23;92847.16;;;0.43;90.41
64602;BME280;68371;42.630;23.192;2023-12-29T05:33:52;92836.84;;;0.37;90.50
64602;BME280;68371;42.630;23.192;2023-12-29T05:36:20;92768.97;;;-0.19;90.72
64602;BME280;68371;42.630;23.192;2023-12-29T05:38:47;92817.50;;;0.19;89.73
64602;BME280;68371;42.630;23.192;2023-12-29T05:41:14;92812.09;;;0.01;89.90
64602;BME280;68371;42.630;23.192;2023-12-29T05:43:41;92791.44;;;-0.10;89.96
64602;BME280;68371;42.630;23.192;2023-12-29T05:46:09;92853.66;;;0.35;89.26
64602;BME280;68371;42.630;23.192;2023-12-29T05:48:37;92782.88;;;-0.10;89.46
64602;BME280;68371;42.630;23.192;2023-12-29T05:51:07;92844.06;;;0.40;89.65
64602;BME280;68371;42.630;23.192;2023-12-29T05:53:35;92837.09;;;0.36;89.75
64602;BME280;68371;42.630;23.192;2023-12-29T05:56:02;92687.63;;;-0.73;89.31
64602;BME280;68371;42.630;23.192;2023-12-29T05:58:29;92632.69;;;-1.10;89.06
64602;BME280;68371;42.630;23.192;2023-12-29T06:00:56;92777.19;;;-0.02;88.97
64602;BME280;68371;42.630;23.192;2023-12-29T06:03:26;92704.41;;;-0.55;89.04
64602;BME280;68371;42.630;23.192;2023-12-29T06:05:53;92830.13;;;0.26;88.70
64602;BME280;68371;42.630;23.192;2023-12-29T06:08:22;92815.94;;;0.24;89.61
64602;BME280;68371;42.630;23.192;2023-12-29T06:10:49;92813.59;;;0.27;88.76
64602;BME280;68371;42.630;23.192;2023-12-29T06:13:17;92806.09;;;0.26;88.50
64602;BME280;68371;42.630;23.192;2023-12-29T06:15:44;92806.88;;;0.26;88.26
64602;BME280;68371;42.630;23.192;2023-12-29T06:18:11;92806.63;;;0.28;87.56
64602;BME280;68371;42.630;23.192;2023-12-29T06:20:38;92777.97;;;0.04;87.84
64602;BME280;68371;42.630;23.192;2023-12-29T06:23:05;92822.13;;;0.28;87.92
64602;BME280;68371;42.630;23.192;2023-12-29T06:25:33;92676.56;;;-0.64;88.12
64602;BME280;68371;42.630;23.192;2023-12-29T06:28:00;92722.75;;;-0.42;87.99
64602;BME280;68371;42.630;23.192;2023-12-29T06:30:28;92821.88;;;0.19;88.43
64602;BME280;68371;42.630;23.192;2023-12-29T06:32:55;92641.47;;;-1.01;89.44
64602;BME280;68371;42.630;23.192;2023-12-29T06:35:23;92813.63;;;0.17;89.46
64602;BME280;68371;42.630;23.192;2023-12-29T06:37:50;92814.13;;;0.14;89.79
64602;BME280;68371;42.630;23.192;2023-12-29T06:40:18;92818.53;;;0.18;90.45
64602;BME280;68371;42.630;23.192;2023-12-29T06:42:46;92811.56;;;0.19;89.75
64602;BME280;68371;42.630;23.192;2023-12-29T06:45:14;92625.47;;;-1.13;90.03
64602;BME280;68371;42.630;23.192;2023-12-29T06:47:41;92820.59;;;0.16;90.11
64602;BME280;68371;42.630;23.192;2023-12-29T06:50:09;92818.53;;;0.18;90.16
64602;BME280;68371;42.630;23.192;2023-12-29T06:52:38;92786.50;;;0.04;90.13
64602;BME280;68371;42.630;23.192;2023-12-29T06:55:06;92814.63;;;0.16;89.36
64602;BME280;68371;42.630;23.192;2023-12-29T06:57:33;92813.09;;;0.15;89.61
64602;BME280;68371;42.630;23.192;2023-12-29T07:00:02;92816.72;;;0.14;90.13
64602;BME280;68371;42.630;23.192;2023-12-29T07:02:29;92748.81;;;-0.33;90.36
64602;BME280;68371;42.630;23.192;2023-12-29T07:04:56;92821.09;;;0.24;90.32
64602;BME280;68371;42.630;23.192;2023-12-29T07:07:24;92803.81;;;0.09;90.28
64602;BME280;68371;42.630;23.192;2023-12-29T07:09:52;92786.78;;;0.03;90.37
64602;BME280;68371;42.630;23.192;2023-12-29T07:12:20;92805.63;;;0.18;90.82
64602;BME280;68371;42.630;23.192;2023-12-29T07:14:47;92826.00;;;0.30;90.92
64602;BME280;68371;42.630;23.192;2023-12-29T07:17:15;92835.28;;;0.42;91.02
64602;BME280;68371;42.630;23.192;2023-12-29T07:19:42;92834.53;;;0.41;91.15
64602;BME280;68371;42.630;23.192;2023-12-29T07:22:09;92835.28;;;0.42;91.59
64602;BME280;68371;42.630;23.192;2023-12-29T07:24:36;92779.28;;;0.01;93.73
64602;BME280;68371;42.630;23.192;2023-12-29T07:27:04;92835.31;;;0.47;95.51
64602;BME280;68371;42.630;23.192;2023-12-29T07:29:31;92824.41;;;0.60;95.71
64602;BME280;68371;42.630;23.192;2023-12-29T07:31:58;92826.19;;;0.65;95.70
64602;BME280;68371;42.630;23.192;2023-12-29T07:34:27;92739.47;;;0.12;95.57
64602;BME280;68371;42.630;23.192;2023-12-29T07:36:56;92823.03;;;0.88;95.54
64602;BME280;68371;42.630;23.192;2023-12-29T07:39:24;92819.41;;;0.84;96.13
64602;BME280;68371;42.630;23.192;2023-12-29T07:41:51;92644.97;;;-0.14;96.42
64602;BME280;68371;42.630;23.192;2023-12-29T07:44:19;92807.72;;;1.02;96.62
64602;BME280;68371;42.630;23.192;2023-12-29T07:46:45;92812.59;;;1.14;96.14
64602;BME280;68371;42.630;23.192;2023-12-29T07:49:12;92807.88;;;1.26;96.52
64602;BME280;68371;42.630;23.192;2023-12-29T07:51:41;92818.94;;;1.37;97.15
64602;BME280;68371;42.630;23.192;2023-12-29T07:54:08;92815.00;;;1.45;98.10
64602;BME280;68371;42.630;23.192;2023-12-29T07:56:35;92799.72;;;1.43;98.19
64602;BME280;68371;42.630;23.192;2023-12-29T07:59:03;92826.78;;;1.66;98.41
64602;BME280;68371;42.630;23.192;2023-12-29T08:01:29;92798.41;;;1.51;98.94
64602;BME280;68371;42.630;23.192;2023-12-29T08:03:56;92773.25;;;1.56;98.64
64602;BME280;68371;42.630;23.192;2023-12-29T08:06:23;92823.94;;;2.02;98.40
64602;BME280;68371;42.630;23.192;2023-12-29T08:08:51;92824.72;;;2.03;98.37
64602;BME280;68371;42.630;23.192;2023-12-29T08:11:18;92818.66;;;2.17;98.39
64602;BME280;68371;42.630;23.192;2023-12-29T08:13:48;92822.41;;;2.30;98.04
64602;BME280;68371;42.630;23.192;2023-12-29T08:16:15;92791.44;;;2.15;97.42
64602;BME280;68371;42.630;23.192;2023-12-29T08:18:44;92793.41;;;2.28;97.31
64602;BME280;68371;42.630;23.192;2023-12-29T08:21:16;92830.19;;;2.59;98.63
64602;BME280;68371;42.630;23.192;2023-12-29T08:23:44;92825.13;;;2.73;98.92
64602;BME280;68371;42.630;23.192;2023-12-29T08:26:12;92827.41;;;2.80;98.96
64602;BME280;68371;42.630;23.192;2023-12-29T08:28:39;92823.13;;;2.89;97.92
64602;BME280;68371;42.630;23.192;2023-12-29T08:31:07;92825.84;;;3.03;96.92
64602;BME280;68371;42.630;23.192;2023-12-29T08:33:34;92824.63;;;3.19;96.54
64602;BME280;68371;42.630;23.192;2023-12-29T08:36:02;92825.56;;;3.29;95.94
64602;BME280;68371;42.630;23.192;2023-12-29T08:38:29;92824.56;;;3.44;95.95
64602;BME280;68371;42.630;23.192;2023-12-29T08:40:57;92825.16;;;3.59;96.68
64602;BME280;68371;42.630;23.192;2023-12-29T08:43:27;92812.16;;;3.78;95.12
64602;BME280;68371;42.630;23.192;2023-12-29T08:45:54;92800.34;;;3.86;93.10
64602;BME280;68371;42.630;23.192;2023-12-29T08:48:21;92626.75;;;2.85;92.54
64602;BME280;68371;42.630;23.192;2023-12-29T08:50:48;92827.06;;;4.25;92.44
64602;BME280;68371;42.630;23.192;2023-12-29T08:53:15;92822.34;;;4.27;91.54
64602;BME280;68371;42.630;23.192;2023-12-29T08:55:42;92830.47;;;4.39;91.97
64602;BME280;68371;42.630;23.192;2023-12-29T08:58:08;92825.72;;;4.27;91.48
64602;BME280;68371;42.630;23.192;2023-12-29T09:00:37;92837.09;;;4.31;91.98
64602;BME280;68371;42.630;23.192;2023-12-29T09:03:04;92841.09;;;4.24;92.72
64602;BME280;68371;42.630;23.192;2023-12-29T09:05:31;92841.09;;;4.24;93.42
64602;BME280;68371;42.630;23.192;2023-12-29T09:07:58;92838.44;;;4.29;93.34
64602;BME280;68371;42.630;23.192;2023-12-29T09:10:24;92828.50;;;4.31;92.77
64602;BME280;68371;42.630;23.192;2023-12-29T09:12:52;92837.63;;;4.47;92.60
64602;BME280;68371;42.630;23.192;2023-12-29T09:15:19;92844.88;;;4.64;91.97
64602;BME280;68371;42.630;23.192;2023-12-29T09:17:47;92845.06;;;4.68;91.63
64602;BME280;68371;42.630;23.192;2023-12-29T09:20:14;92854.06;;;4.89;89.76
64602;BME280;68371;42.630;23.192;2023-12-29T09:22:41;92843.56;;;4.94;89.27
64602;BME280;68371;42.630;23.192;2023-12-29T09:25:08;92839.22;;;5.04;88.82
64602;BME280;68371;42.630;23.192;2023-12-29T09:27:34;92822.06;;;5.16;86.89
64602;BME280;68371;42.630;23.192;2023-12-29T09:30:01;92768.94;;;4.90;87.38
64602;BME280;68371;42.630;23.192;2023-12-29T09:32:29;92762.84;;;5.08;86.06
64602;BME280;68371;42.630;23.192;2023-12-29T09:34:58;92826.06;;;5.50;86.16
64602;BME280;68371;42.630;23.192;2023-12-29T09:37:25;92768.69;;;5.28;86.20
64602;BME280;68371;42.630;23.192;2023-12-29T09:39:52;92819.63;;;5.84;84.30
64602;BME280;68371;42.630;23.192;2023-12-29T09:42:20;92815.53;;;5.92;84.14
64602;BME280;68371;42.630;23.192;2023-12-29T09:44:49;92807.63;;;5.97;84.06
64602;BME280;68371;42.630;23.192;2023-12-29T09:47:21;92804.72;;;5.98;83.82
64602;BME280;68371;42.630;23.192;2023-12-29T09:49:49;92801.19;;;6.17;83.88
64602;BME280;68371;42.630;23.192;2023-12-29T09:52:20;92803.78;;;6.17;82.77
64602;BME280;68371;42.630;23.192;2023-12-29T09:54:48;92797.09;;;6.25;82.86
64602;BME280;68371;42.630;23.192;2023-12-29T09:57:17;92788.78;;;6.22;83.40
64602;BME280;68371;42.630;23.192;2023-12-29T09:59:44;92794.13;;;6.49;82.49
64602;BME280;68371;42.630;23.192;2023-12-29T10:02:14;92790.81;;;6.57;81.48
64602;BME280;68371;42.630;23.192;2023-12-29T10:04:42;92751.28;;;6.41;80.95
64602;BME280;68371;42.630;23.192;2023-12-29T10:07:15;92785.94;;;6.73;81.48
64602;BME280;68371;42.630;23.192;2023-12-29T10:09:46;92781.09;;;6.89;80.65
64602;BME280;68371;42.630;23.192;2023-12-29T10:12:14;92776.41;;;7.08;79.83
64602;BME280;68371;42.630;23.192;2023-12-29T10:14:46;92777.19;;;7.17;79.55
64602;BME280;68371;42.630;23.192;2023-12-29T10:17:21;92773.06;;;7.25;79.72
64602;BME280;68371;42.630;23.192;2023-12-29T10:19:56;92766.34;;;7.50;77.85
64602;BME280;68371;42.630;23.192;2023-12-29T10:22:29;92747.75;;;7.69;77.65
64602;BME280;68371;42.630;23.192;2023-12-29T10:25:00;92573.88;;;6.67;76.22
64602;BME280;68371;42.630;23.192;2023-12-29T10:27:27;92744.50;;;7.90;75.68
64602;BME280;68371;42.630;23.192;2023-12-29T10:29:54;92740.16;;;8.02;74.97
64602;BME280;68371;42.630;23.192;2023-12-29T10:32:21;92743.38;;;8.17;74.06
64602;BME280;68371;42.630;23.192;2023-12-29T10:34:48;92727.50;;;8.31;73.63
64602;BME280;68371;42.630;23.192;2023-12-29T10:37:22;92722.25;;;8.39;72.63
64602;BME280;68371;42.630;23.192;2023-12-29T10:39:55;92727.75;;;8.64;71.05
64602;BME280;68371;42.630;23.192;2023-12-29T10:42:24;92595.38;;;7.98;68.93
64602;BME280;68371;42.630;23.192;2023-12-29T10:45:04;92640.63;;;8.46;67.77
64602;BME280;68371;42.630;23.192;2023-12-29T10:47:32;92675.44;;;8.76;67.44
64602;BME280;68371;42.630;23.192;2023-12-29T10:50:01;92698.91;;;9.02;68.18
64602;BME280;68371;42.630;23.192;2023-12-29T10:52:29;92584.38;;;8.52;67.06
64602;BME280;68371;42.630;23.192;2023-12-29T10:55:04;92694.00;;;9.43;67.26
64602;BME280;68371;42.630;23.192;2023-12-29T10:57:33;92679.66;;;9.40;67.98
64602;BME280;68371;42.630;23.192;2023-12-29T10:59:59;92648.53;;;9.39;67.41
64602;BME280;68371;42.630;23.192;2023-12-29T11:02:27;92700.09;;;9.89;65.40
64602;BME280;68371;42.630;23.192;2023-12-29T11:05:01;92691.06;;;9.99;64.80
64602;BME280;68371;42.630;23.192;2023-12-29T11:07:34;92683.22;;;10.11;65.20
64602;BME280;68371;42.630;23.192;2023-12-29T11:10:03;92678.25;;;10.31;64.37
64602;BME280;68371;42.630;23.192;2023-12-29T11:12:33;92664.81;;;10.45;61.59
64602;BME280;68371;42.630;23.192;2023-12-29T11:15:02;92669.84;;;10.50;61.76
64602;BME280;68371;42.630;23.192;2023-12-29T11:17:30;92660.66;;;10.56;57.99
64602;BME280;68371;42.630;23.192;2023-12-29T11:20:00;92667.59;;;10.60;58.95
64602;BME280;68371;42.630;23.192;2023-12-29T11:22:30;92665.28;;;10.71;59.46
64602;BME280;68371;42.630;23.192;2023-12-29T11:24:58;92628.50;;;10.47;58.41
64602;BME280;68371;42.630;23.192;2023-12-29T11:27:27;92594.84;;;10.15;55.36
64602;BME280;68371;42.630;23.192;2023-12-29T11:29:58;92660.00;;;10.96;56.53
64602;BME280;68371;42.630;23.192;2023-12-29T11:32:31;92634.84;;;10.95;53.17
64602;BME280;68371;42.630;23.192;2023-12-29T11:35:11;92664.00;;;11.30;51.01
64602;BME280;68371;42.630;23.192;2023-12-29T11:38:07;92653.59;;;11.34;49.70
64602;BME280;68371;42.630;23.192;2023-12-29T11:40:41;92609.81;;;11.13;51.67
64602;BME280;68371;42.630;23.192;2023-12-29T11:43:14;92648.56;;;11.57;50.27
64602;BME280;68371;42.630;23.192;2023-12-29T11:45:43;92642.25;;;11.74;49.60
64602;BME280;68371;42.630;23.192;2023-12-29T11:48:10;92648.72;;;11.76;49.96
64602;BME280;68371;42.630;23.192;2023-12-29T11:50:38;92644.84;;;11.86;46.78
64602;BME280;68371;42.630;23.192;2023-12-29T11:53:06;92506.09;;;10.98;46.95
64602;BME280;68371;42.630;23.192;2023-12-29T11:55:35;92604.56;;;11.70;47.59
64602;BME280;68371;42.630;23.192;2023-12-29T11:58:03;92638.78;;;11.98;52.45
64602;BME280;68371;42.630;23.192;2023-12-29T12:00:46;92636.25;;;12.01;54.43
64602;BME280;68371;42.630;23.192;2023-12-29T12:03:17;92640.47;;;12.06;55.41
64602;BME280;68371;42.630;23.192;2023-12-29T12:05:45;92544.25;;;11.49;54.81
64602;BME280;68371;42.630;23.192;2023-12-29T12:08:26;92573.44;;;11.88;55.78
64602;BME280;68371;42.630;23.192;2023-12-29T12:10:53;92635.53;;;12.33;53.79
64602;BME280;68371;42.630;23.192;2023-12-29T12:13:44;92559.97;;;11.89;53.60
64602;BME280;68371;42.630;23.192;2023-12-29T12:19:13;92597.00;;;12.12;52.60
64602;BME280;68371;42.630;23.192;2023-12-29T12:21:40;92622.19;;;12.41;53.43
64602;BME280;68371;42.630;23.192;2023-12-29T12:24:07;92571.25;;;12.06;53.70
64602;BME280;68371;42.630;23.192;2023-12-29T12:26:34;92629.66;;;12.55;53.49
64602;BME280;68371;42.630;23.192;2023-12-29T12:29:03;92568.22;;;12.03;54.07
64602;BME280;68371;42.630;23.192;2023-12-29T12:31:30;92635.25;;;12.54;54.55
64602;BME280;68371;42.630;23.192;2023-12-29T12:33:59;92553.75;;;11.97;53.83
64602;BME280;68371;42.630;23.192;2023-12-29T12:36:28;92639.16;;;12.60;52.40
64602;BME280;68371;42.630;23.192;2023-12-29T12:38:56;92647.06;;;12.60;52.45
64602;BME280;68371;42.630;23.192;2023-12-29T12:41:25;92617.84;;;12.49;51.97
64602;BME280;68371;42.630;23.192;2023-12-29T12:43:59;92617.16;;;12.52;51.89
64602;BME280;68371;42.630;23.192;2023-12-29T12:46:33;92637.13;;;12.69;50.63
64602;BME280;68371;42.630;23.192;2023-12-29T12:49:00;92643.25;;;12.73;51.06
64602;BME280;68371;42.630;23.192;2023-12-29T12:51:30;92644.00;;;12.74;51.15
64602;BME280;68371;42.630;23.192;2023-12-29T12:53:59;92559.13;;;12.17;50.58
64602;BME280;68371;42.630;23.192;2023-12-29T12:56:28;92656.06;;;12.75;50.88
64602;BME280;68371;42.630;23.192;2023-12-29T12:58:56;92623.69;;;12.58;50.63
64602;BME280;68371;42.630;23.192;2023-12-29T13:01:23;92418.66;;;11.30;50.98
64602;BME280;68371;42.630;23.192;2023-12-29T13:03:51;92644.16;;;12.81;50.14
64602;BME280;68371;42.630;23.192;2023-12-29T13:06:18;92648.41;;;12.86;50.62